sensor_id;sensor_type;location;lat;lon;timestamp;P1;durP1;ratioP1;P2;durP2;ratioP2
6878;SDS011;3478;51.462;7.338;2022-12-18T00:04:17;5.30;;;4.70;;
6878;SDS011;3478;51.462;7.338;2022-12-18T00:09:22;7.50;;;5.20;;
6878;SDS011;3478;51.462;7.338;2022-12-18T00:14:24;6.07;;;5.40;;
6878;SDS011;3478;51.462;7.338;2022-12-18T00:19:26;5.53;;;4.47;;
6878;SDS011;3478;51.462;7.338;2022-12-18T00:24:30;6.33;;;5.23;;
6878;SDS011;3478;51.462;7.338;2022-12-18T00:29:32;4.77;;;4.20;;
6878;SDS011;3478;51.462;7.338;2022-12-18T00:34:33;6.43;;;5.80;;
6878;SDS011;3478;51.462;7.338;2022-12-18T00:39:37;3.57;;;3.27;;
6878;SDS011;3478;51.462;7.338;2022-12-18T00:44:39;5.00;;;4.50;;
6878;SDS011;3478;51.462;7.338;2022-12-18T00:49:40;7.07;;;4.40;;
6878;SDS011;3478;51.462;7.338;2022-12-18T00:54:44;6.03;;;3.80;;
6878;SDS011;3478;51.462;7.338;2022-12-18T00:59:45;5.53;;;3.57;;
6878;SDS011;3478;51.462;7.338;2022-12-18T01:04:47;6.30;;;5.70;;
6878;SDS011;3478;51.462;7.338;2022-12-18T01:09:50;14.03;;;8.70;;
6878;SDS011;3478;51.462;7.338;2022-12-18T01:14:52;9.73;;;6.87;;
6878;SDS011;3478;51.462;7.338;2022-12-18T01:19:54;3.97;;;3.00;;
6878;SDS011;3478;51.462;7.338;2022-12-18T01:24:57;6.93;;;4.03;;
6878;SDS011;3478;51.462;7.338;2022-12-18T01:29:59;9.40;;;6.00;;
6878;SDS011;3478;51.462;7.338;2022-12-18T01:35:01;6.10;;;5.50;;
6878;SDS011;3478;51.462;7.338;2022-12-18T01:40:06;10.80;;;5.30;;
6878;SDS011;3478;51.462;7.338;2022-12-18T01:45:22;6.03;;;5.53;;
6878;SDS011;3478;51.462;7.338;2022-12-18T01:50:28;4.57;;;3.03;;
6878;SDS011;3478;51.462;7.338;2022-12-18T01:55:35;6.57;;;4.43;;
6878;SDS011;3478;51.462;7.338;2022-12-18T02:00:39;6.53;;;5.80;;
6878;SDS011;3478;51.462;7.338;2022-12-18T02:05:44;6.90;;;4.50;;
6878;SDS011;3478;51.462;7.338;2022-12-18T02:10:51;5.10;;;3.87;;
6878;SDS011;3478;51.462;7.338;2022-12-18T02:16:01;3.13;;;2.93;;
6878;SDS011;3478;51.462;7.338;2022-12-18T02:21:11;3.47;;;2.70;;
6878;SDS011;3478;51.462;7.338;2022-12-18T02:26:22;2.93;;;2.63;;
6878;SDS011;3478;51.462;7.338;2022-12-18T02:31:29;5.47;;;3.40;;
6878;SDS011;3478;51.462;7.338;2022-12-18T02:36:36;2.90;;;2.70;;
6878;SDS011;3478;51.462;7.338;2022-12-18T02:41:43;3.60;;;3.30;;
6878;SDS011;3478;51.462;7.338;2022-12-18T02:46:45;3.53;;;2.40;;
6878;SDS011;3478;51.462;7.338;2022-12-18T02:51:51;7.17;;;3.20;;
6878;SDS011;3478;51.462;7.338;2022-12-18T02:56:58;5.10;;;2.90;;
6878;SDS011;3478;51.462;7.338;2022-12-18T03:02:10;5.03;;;3.40;;
6878;SDS011;3478;51.462;7.338;2022-12-18T03:07:20;3.23;;;2.07;;
6878;SDS011;3478;51.462;7.338;2022-12-18T03:12:30;3.73;;;2.60;;
6878;SDS011;3478;51.462;7.338;2022-12-18T03:17:35;4.00;;;2.70;;
6878;SDS011;3478;51.462;7.338;2022-12-18T03:22:39;4.30;;;3.07;;
6878;SDS011;3478;51.462;7.338;2022-12-18T03:27:46;3.07;;;2.83;;
6878;SDS011;3478;51.462;7.338;2022-12-18T03:32:51;2.97;;;2.77;;
6878;SDS011;3478;51.462;7.338;2022-12-18T03:37:57;3.17;;;2.83;;
6878;SDS011;3478;51.462;7.338;2022-12-18T03:43:02;4.10;;;2.57;;
6878;SDS011;3478;51.462;7.338;2022-12-18T03:48:12;3.23;;;2.03;;
6878;SDS011;3478;51.462;7.338;2022-12-18T03:53:22;2.10;;;2.00;;
6878;SDS011;3478;51.462;7.338;2022-12-18T03:58:31;4.50;;;2.83;;
6878;SDS011;3478;51.462;7.338;2022-12-18T04:03:35;2.67;;;1.40;;
6878;SDS011;3478;51.462;7.338;2022-12-18T04:08:38;2.53;;;2.13;;
6878;SDS011;3478;51.462;7.338;2022-12-18T04:13:43;2.20;;;1.80;;
6878;SDS011;3478;51.462;7.338;2022-12-18T04:18:45;2.30;;;1.73;;
6878;SDS011;3478;51.462;7.338;2022-12-18T04:23:47;2.00;;;1.80;;
6878;SDS011;3478;51.462;7.338;2022-12-18T04:28:50;1.93;;;1.77;;
6878;SDS011;3478;51.462;7.338;2022-12-18T04:33:52;1.83;;;1.10;;
6878;SDS011;3478;51.462;7.338;2022-12-18T04:38:54;2.97;;;1.50;;
6878;SDS011;3478;51.462;7.338;2022-12-18T04:43:57;1.30;;;1.13;;
6878;SDS011;3478;51.462;7.338;2022-12-18T04:48:59;2.80;;;2.13;;
6878;SDS011;3478;51.462;7.338;2022-12-18T04:54:00;3.33;;;3.03;;
6878;SDS011;3478;51.462;7.338;2022-12-18T04:59:04;1.97;;;1.70;;
6878;SDS011;3478;51.462;7.338;2022-12-18T05:04:05;1.83;;;1.50;;
6878;SDS011;3478;51.462;7.338;2022-12-18T05:09:07;2.77;;;1.87;;
6878;SDS011;3478;51.462;7.338;2022-12-18T05:14:10;2.27;;;2.17;;
6878;SDS011;3478;51.462;7.338;2022-12-18T05:19:12;2.30;;;2.00;;
6878;SDS011;3478;51.462;7.338;2022-12-18T05:24:14;4.60;;;2.20;;
6878;SDS011;3478;51.462;7.338;2022-12-18T05:29:17;2.97;;;2.40;;
6878;SDS011;3478;51.462;7.338;2022-12-18T05:34:19;3.60;;;2.10;;
6878;SDS011;3478;51.462;7.338;2022-12-18T05:39:21;2.03;;;1.33;;
6878;SDS011;3478;51.462;7.338;2022-12-18T05:44:24;4.20;;;2.17;;
6878;SDS011;3478;51.462;7.338;2022-12-18T05:49:26;3.40;;;2.27;;
6878;SDS011;3478;51.462;7.338;2022-12-18T05:54:28;6.50;;;1.73;;
6878;SDS011;3478;51.462;7.338;2022-12-18T05:59:32;2.23;;;1.93;;
6878;SDS011;3478;51.462;7.338;2022-12-18T06:04:34;3.03;;;2.00;;
6878;SDS011;3478;51.462;7.338;2022-12-18T06:09:36;3.47;;;2.13;;
6878;SDS011;3478;51.462;7.338;2022-12-18T06:14:39;1.80;;;1.70;;
6878;SDS011;3478;51.462;7.338;2022-12-18T06:19:41;2.60;;;2.30;;
6878;SDS011;3478;51.462;7.338;2022-12-18T06:24:43;4.10;;;2.57;;
6878;SDS011;3478;51.462;7.338;2022-12-18T06:29:46;3.43;;;1.63;;
6878;SDS011;3478;51.462;7.338;2022-12-18T06:34:48;2.33;;;1.30;;
6878;SDS011;3478;51.462;7.338;2022-12-18T06:39:50;2.00;;;1.50;;
6878;SDS011;3478;51.462;7.338;2022-12-18T06:44:53;4.60;;;3.03;;
6878;SDS011;3478;51.462;7.338;2022-12-18T06:49:55;5.30;;;2.43;;
6878;SDS011;3478;51.462;7.338;2022-12-18T06:54:56;3.63;;;2.50;;
6878;SDS011;3478;51.462;7.338;2022-12-18T07:00:00;2.60;;;2.40;;
6878;SDS011;3478;51.462;7.338;2022-12-18T07:05:03;2.67;;;2.20;;
6878;SDS011;3478;51.462;7.338;2022-12-18T07:10:05;2.80;;;2.47;;
6878;SDS011;3478;51.462;7.338;2022-12-18T07:15:09;4.40;;;2.37;;
6878;SDS011;3478;51.462;7.338;2022-12-18T07:20:11;2.93;;;2.43;;
6878;SDS011;3478;51.462;7.338;2022-12-18T07:25:13;2.90;;;2.60;;
6878;SDS011;3478;51.462;7.338;2022-12-18T07:30:16;7.33;;;3.27;;
6878;SDS011;3478;51.462;7.338;2022-12-18T07:35:18;3.67;;;3.30;;
6878;SDS011;3478;51.462;7.338;2022-12-18T07:40:20;3.03;;;2.63;;
6878;SDS011;3478;51.462;7.338;2022-12-18T07:45:24;5.03;;;3.97;;
6878;SDS011;3478;51.462;7.338;2022-12-18T07:50:25;7.77;;;2.70;;
6878;SDS011;3478;51.462;7.338;2022-12-18T07:55:27;3.77;;;1.90;;
6878;SDS011;3478;51.462;7.338;2022-12-18T08:00:30;4.37;;;1.90;;
6878;SDS011;3478;51.462;7.338;2022-12-18T08:05:32;3.23;;;1.77;;
6878;SDS011;3478;51.462;7.338;2022-12-18T08:10:34;2.30;;;2.10;;
6878;SDS011;3478;51.462;7.338;2022-12-18T08:15:37;2.57;;;1.87;;
6878;SDS011;3478;51.462;7.338;2022-12-18T08:20:42;3.43;;;2.30;;
6878;SDS011;3478;51.462;7.338;2022-12-18T08:25:44;3.93;;;1.77;;
6878;SDS011;3478;51.462;7.338;2022-12-18T08:30:47;3.93;;;2.90;;
6878;SDS011;3478;51.462;7.338;2022-12-18T08:35:52;6.80;;;3.60;;
6878;SDS011;3478;51.462;7.338;2022-12-18T08:40:57;2.37;;;1.80;;
6878;SDS011;3478;51.462;7.338;2022-12-18T08:46:01;3.90;;;2.50;;
6878;SDS011;3478;51.462;7.338;2022-12-18T08:51:03;5.40;;;4.23;;
6878;SDS011;3478;51.462;7.338;2022-12-18T08:56:05;5.27;;;2.73;;
6878;SDS011;3478;51.462;7.338;2022-12-18T09:01:10;3.13;;;2.20;;
6878;SDS011;3478;51.462;7.338;2022-12-18T09:06:14;1.73;;;1.63;;
6878;SDS011;3478;51.462;7.338;2022-12-18T09:11:19;6.23;;;2.57;;
6878;SDS011;3478;51.462;7.338;2022-12-18T09:16:24;2.50;;;2.03;;
6878;SDS011;3478;51.462;7.338;2022-12-18T09:21:29;4.13;;;1.53;;
6878;SDS011;3478;51.462;7.338;2022-12-18T09:26:32;1.23;;;1.10;;
6878;SDS011;3478;51.462;7.338;2022-12-18T09:31:35;3.00;;;2.00;;
6878;SDS011;3478;51.462;7.338;2022-12-18T09:36:37;2.30;;;1.10;;
6878;SDS011;3478;51.462;7.338;2022-12-18T09:41:41;2.50;;;2.30;;
6878;SDS011;3478;51.462;7.338;2022-12-18T09:46:47;3.27;;;1.80;;
6878;SDS011;3478;51.462;7.338;2022-12-18T09:51:55;1.83;;;1.70;;
6878;SDS011;3478;51.462;7.338;2022-12-18T09:57:01;2.20;;;1.50;;
6878;SDS011;3478;51.462;7.338;2022-12-18T10:07:24;7.67;;;4.50;;
6878;SDS011;3478;51.462;7.338;2022-12-18T10:12:32;7.90;;;5.13;;
6878;SDS011;3478;51.462;7.338;2022-12-18T10:17:44;7.47;;;2.87;;
6878;SDS011;3478;51.462;7.338;2022-12-18T10:22:53;2.80;;;1.67;;
6878;SDS011;3478;51.462;7.338;2022-12-18T10:28:06;2.10;;;1.60;;
6878;SDS011;3478;51.462;7.338;2022-12-18T10:33:13;3.97;;;1.87;;
6878;SDS011;3478;51.462;7.338;2022-12-18T10:38:20;1.50;;;1.20;;
6878;SDS011;3478;51.462;7.338;2022-12-18T10:43:26;2.70;;;1.30;;
6878;SDS011;3478;51.462;7.338;2022-12-18T10:48:31;3.73;;;1.57;;
6878;SDS011;3478;51.462;7.338;2022-12-18T10:53:35;2.43;;;1.53;;
6878;SDS011;3478;51.462;7.338;2022-12-18T10:58:38;1.20;;;1.10;;
6878;SDS011;3478;51.462;7.338;2022-12-18T11:03:42;1.63;;;1.33;;
6878;SDS011;3478;51.462;7.338;2022-12-18T11:08:57;1.53;;;1.43;;
6878;SDS011;3478;51.462;7.338;2022-12-18T11:14:01;5.50;;;1.37;;
6878;SDS011;3478;51.462;7.338;2022-12-18T11:19:16;1.60;;;1.47;;
6878;SDS011;3478;51.462;7.338;2022-12-18T11:24:26;4.13;;;1.50;;
6878;SDS011;3478;51.462;7.338;2022-12-18T11:29:32;1.97;;;1.63;;
6878;SDS011;3478;51.462;7.338;2022-12-18T11:34:37;2.43;;;2.07;;
6878;SDS011;3478;51.462;7.338;2022-12-18T11:39:40;6.30;;;1.90;;
6878;SDS011;3478;51.462;7.338;2022-12-18T11:44:48;3.60;;;2.23;;
6878;SDS011;3478;51.462;7.338;2022-12-18T11:49:55;3.53;;;1.50;;
6878;SDS011;3478;51.462;7.338;2022-12-18T11:55:01;4.23;;;2.00;;
6878;SDS011;3478;51.462;7.338;2022-12-18T12:00:12;5.40;;;1.80;;
6878;SDS011;3478;51.462;7.338;2022-12-18T12:05:23;1.87;;;1.63;;
6878;SDS011;3478;51.462;7.338;2022-12-18T12:10:36;2.30;;;1.90;;
6878;SDS011;3478;51.462;7.338;2022-12-18T12:15:48;8.03;;;2.70;;
6878;SDS011;3478;51.462;7.338;2022-12-18T12:21:05;4.30;;;2.30;;
6878;SDS011;3478;51.462;7.338;2022-12-18T12:26:16;5.63;;;1.70;;
6878;SDS011;3478;51.462;7.338;2022-12-18T12:31:32;11.87;;;4.30;;
6878;SDS011;3478;51.462;7.338;2022-12-18T12:37:03;3.37;;;2.30;;
6878;SDS011;3478;51.462;7.338;2022-12-18T12:42:19;15.00;;;7.67;;
6878;SDS011;3478;51.462;7.338;2022-12-18T12:47:45;3.33;;;1.50;;
6878;SDS011;3478;51.462;7.338;2022-12-18T12:52:52;3.27;;;2.30;;
6878;SDS011;3478;51.462;7.338;2022-12-18T12:57:58;4.97;;;2.57;;
6878;SDS011;3478;51.462;7.338;2022-12-18T13:03:08;7.53;;;4.00;;
6878;SDS011;3478;51.462;7.338;2022-12-18T13:08:23;5.23;;;3.50;;
6878;SDS011;3478;51.462;7.338;2022-12-18T13:13:27;6.77;;;2.93;;
6878;SDS011;3478;51.462;7.338;2022-12-18T13:18:52;3.30;;;3.00;;
6878;SDS011;3478;51.462;7.338;2022-12-18T13:24:08;6.27;;;3.77;;
6878;SDS011;3478;51.462;7.338;2022-12-18T13:29:39;5.90;;;3.70;;
6878;SDS011;3478;51.462;7.338;2022-12-18T13:34:43;4.10;;;2.80;;
6878;SDS011;3478;51.462;7.338;2022-12-18T13:39:46;5.67;;;3.93;;
6878;SDS011;3478;51.462;7.338;2022-12-18T13:44:48;4.77;;;4.10;;
6878;SDS011;3478;51.462;7.338;2022-12-18T13:49:50;4.87;;;4.50;;
6878;SDS011;3478;51.462;7.338;2022-12-18T13:54:54;8.33;;;4.47;;
6878;SDS011;3478;51.462;7.338;2022-12-18T13:59:58;17.97;;;11.03;;
6878;SDS011;3478;51.462;7.338;2022-12-18T14:05:21;6.17;;;4.80;;
6878;SDS011;3478;51.462;7.338;2022-12-18T14:10:25;10.50;;;8.60;;
6878;SDS011;3478;51.462;7.338;2022-12-18T14:15:30;5.60;;;5.00;;
6878;SDS011;3478;51.462;7.338;2022-12-18T14:20:34;17.80;;;7.83;;
6878;SDS011;3478;51.462;7.338;2022-12-18T14:25:38;8.03;;;7.00;;
6878;SDS011;3478;51.462;7.338;2022-12-18T14:30:40;8.47;;;5.70;;
6878;SDS011;3478;51.462;7.338;2022-12-18T14:35:43;8.10;;;5.30;;
6878;SDS011;3478;51.462;7.338;2022-12-18T14:40:57;8.40;;;5.20;;
6878;SDS011;3478;51.462;7.338;2022-12-18T14:45:59;7.17;;;5.77;;
6878;SDS011;3478;51.462;7.338;2022-12-18T14:51:03;9.20;;;6.43;;
6878;SDS011;3478;51.462;7.338;2022-12-18T14:56:16;8.47;;;6.70;;
6878;SDS011;3478;51.462;7.338;2022-12-18T15:01:20;6.67;;;5.70;;
6878;SDS011;3478;51.462;7.338;2022-12-18T15:06:29;8.00;;;7.30;;
6878;SDS011;3478;51.462;7.338;2022-12-18T15:11:43;8.27;;;5.97;;
6878;SDS011;3478;51.462;7.338;2022-12-18T15:16:49;7.40;;;5.97;;
6878;SDS011;3478;51.462;7.338;2022-12-18T15:21:52;10.30;;;6.90;;
6878;SDS011;3478;51.462;7.338;2022-12-18T15:26:55;12.10;;;6.73;;
6878;SDS011;3478;51.462;7.338;2022-12-18T15:31:58;9.93;;;6.93;;
6878;SDS011;3478;51.462;7.338;2022-12-18T15:37:02;13.50;;;8.80;;
6878;SDS011;3478;51.462;7.338;2022-12-18T15:42:07;9.80;;;6.17;;
6878;SDS011;3478;51.462;7.338;2022-12-18T15:47:27;11.07;;;6.90;;
6878;SDS011;3478;51.462;7.338;2022-12-18T15:52:29;17.23;;;9.80;;
6878;SDS011;3478;51.462;7.338;2022-12-18T15:57:42;11.77;;;8.70;;
6878;SDS011;3478;51.462;7.338;2022-12-18T16:02:44;12.73;;;8.20;;
6878;SDS011;3478;51.462;7.338;2022-12-18T16:07:46;15.80;;;10.00;;
6878;SDS011;3478;51.462;7.338;2022-12-18T16:12:49;13.57;;;8.93;;
6878;SDS011;3478;51.462;7.338;2022-12-18T16:17:51;15.50;;;9.17;;
6878;SDS011;3478;51.462;7.338;2022-12-18T16:22:53;13.23;;;10.37;;
6878;SDS011;3478;51.462;7.338;2022-12-18T16:27:59;15.83;;;10.63;;
6878;SDS011;3478;51.462;7.338;2022-12-18T16:33:01;17.17;;;10.23;;
6878;SDS011;3478;51.462;7.338;2022-12-18T16:38:03;16.30;;;10.30;;
6878;SDS011;3478;51.462;7.338;2022-12-18T16:43:06;18.93;;;10.97;;
6878;SDS011;3478;51.462;7.338;2022-12-18T16:48:08;15.70;;;11.27;;
6878;SDS011;3478;51.462;7.338;2022-12-18T16:53:10;21.77;;;11.50;;
6878;SDS011;3478;51.462;7.338;2022-12-18T16:58:13;18.37;;;11.97;;
6878;SDS011;3478;51.462;7.338;2022-12-18T17:03:15;19.90;;;11.37;;
6878;SDS011;3478;51.462;7.338;2022-12-18T17:08:17;21.10;;;13.03;;
6878;SDS011;3478;51.462;7.338;2022-12-18T17:13:22;23.10;;;13.63;;
6878;SDS011;3478;51.462;7.338;2022-12-18T17:18:27;23.23;;;14.50;;
6878;SDS011;3478;51.462;7.338;2022-12-18T17:23:29;22.90;;;12.53;;
6878;SDS011;3478;51.462;7.338;2022-12-18T17:28:33;24.03;;;13.40;;
6878;SDS011;3478;51.462;7.338;2022-12-18T17:33:35;26.87;;;14.00;;
6878;SDS011;3478;51.462;7.338;2022-12-18T17:38:37;22.10;;;12.60;;
6878;SDS011;3478;51.462;7.338;2022-12-18T17:43:43;20.60;;;12.83;;
6878;SDS011;3478;51.462;7.338;2022-12-18T17:48:50;24.33;;;14.60;;
6878;SDS011;3478;51.462;7.338;2022-12-18T17:53:52;24.40;;;13.57;;
6878;SDS011;3478;51.462;7.338;2022-12-18T17:58:56;26.50;;;15.20;;
6878;SDS011;3478;51.462;7.338;2022-12-18T18:03:58;24.43;;;14.80;;
6878;SDS011;3478;51.462;7.338;2022-12-18T18:09:01;21.60;;;14.57;;
6878;SDS011;3478;51.462;7.338;2022-12-18T18:14:05;23.40;;;12.67;;
6878;SDS011;3478;51.462;7.338;2022-12-18T18:19:12;21.83;;;14.33;;
6878;SDS011;3478;51.462;7.338;2022-12-18T18:24:15;25.60;;;16.17;;
6878;SDS011;3478;51.462;7.338;2022-12-18T18:29:20;33.43;;;18.00;;
6878;SDS011;3478;51.462;7.338;2022-12-18T18:34:24;28.67;;;15.53;;
6878;SDS011;3478;51.462;7.338;2022-12-18T18:39:27;24.83;;;14.40;;
6878;SDS011;3478;51.462;7.338;2022-12-18T18:44:31;23.50;;;14.70;;
6878;SDS011;3478;51.462;7.338;2022-12-18T18:49:33;24.57;;;15.90;;
6878;SDS011;3478;51.462;7.338;2022-12-18T18:54:35;31.63;;;18.47;;
6878;SDS011;3478;51.462;7.338;2022-12-18T18:59:38;31.87;;;16.50;;
6878;SDS011;3478;51.462;7.338;2022-12-18T19:04:40;29.10;;;16.23;;
6878;SDS011;3478;51.462;7.338;2022-12-18T19:09:42;30.80;;;19.00;;
6878;SDS011;3478;51.462;7.338;2022-12-18T19:14:53;38.53;;;18.97;;
6878;SDS011;3478;51.462;7.338;2022-12-18T19:19:56;35.10;;;19.07;;
6878;SDS011;3478;51.462;7.338;2022-12-18T19:24:58;21.30;;;14.83;;
6878;SDS011;3478;51.462;7.338;2022-12-18T19:30:01;36.57;;;17.17;;
6878;SDS011;3478;51.462;7.338;2022-12-18T19:35:03;30.63;;;16.93;;
6878;SDS011;3478;51.462;7.338;2022-12-18T19:40:06;31.87;;;15.97;;
6878;SDS011;3478;51.462;7.338;2022-12-18T19:45:10;34.53;;;19.57;;
6878;SDS011;3478;51.462;7.338;2022-12-18T19:50:12;26.53;;;16.07;;
6878;SDS011;3478;51.462;7.338;2022-12-18T19:55:14;22.43;;;13.33;;
6878;SDS011;3478;51.462;7.338;2022-12-18T20:00:18;27.47;;;14.70;;
6878;SDS011;3478;51.462;7.338;2022-12-18T20:05:20;22.13;;;14.10;;
6878;SDS011;3478;51.462;7.338;2022-12-18T20:10:24;28.40;;;15.50;;
6878;SDS011;3478;51.462;7.338;2022-12-18T20:15:27;29.70;;;15.20;;
6878;SDS011;3478;51.462;7.338;2022-12-18T20:20:29;26.03;;;13.97;;
6878;SDS011;3478;51.462;7.338;2022-12-18T20:25:31;26.53;;;15.07;;
6878;SDS011;3478;51.462;7.338;2022-12-18T20:30:34;23.53;;;14.00;;
6878;SDS011;3478;51.462;7.338;2022-12-18T20:35:37;32.90;;;15.60;;
6878;SDS011;3478;51.462;7.338;2022-12-18T20:40:39;32.17;;;15.67;;
6878;SDS011;3478;51.462;7.338;2022-12-18T20:45:42;29.27;;;15.87;;
6878;SDS011;3478;51.462;7.338;2022-12-18T20:50:44;30.87;;;15.30;;
6878;SDS011;3478;51.462;7.338;2022-12-18T20:55:56;28.17;;;14.40;;
6878;SDS011;3478;51.462;7.338;2022-12-18T21:01:04;24.53;;;15.07;;
6878;SDS011;3478;51.462;7.338;2022-12-18T21:06:07;31.87;;;15.53;;
6878;SDS011;3478;51.462;7.338;2022-12-18T21:11:10;25.40;;;14.53;;
6878;SDS011;3478;51.462;7.338;2022-12-18T21:16:37;27.03;;;15.63;;
6878;SDS011;3478;51.462;7.338;2022-12-18T21:21:40;27.20;;;14.37;;
6878;SDS011;3478;51.462;7.338;2022-12-18T21:26:44;29.10;;;17.10;;
6878;SDS011;3478;51.462;7.338;2022-12-18T21:31:49;29.30;;;16.50;;
6878;SDS011;3478;51.462;7.338;2022-12-18T21:36:51;30.70;;;16.97;;
6878;SDS011;3478;51.462;7.338;2022-12-18T21:41:54;29.77;;;16.93;;
6878;SDS011;3478;51.462;7.338;2022-12-18T21:47:16;32.90;;;15.60;;
6878;SDS011;3478;51.462;7.338;2022-12-18T21:52:18;25.67;;;14.40;;
6878;SDS011;3478;51.462;7.338;2022-12-18T21:57:20;26.40;;;16.60;;
6878;SDS011;3478;51.462;7.338;2022-12-18T22:02:23;23.40;;;14.13;;
6878;SDS011;3478;51.462;7.338;2022-12-18T22:07:25;28.03;;;15.37;;
6878;SDS011;3478;51.462;7.338;2022-12-18T22:12:28;26.00;;;14.37;;
6878;SDS011;3478;51.462;7.338;2022-12-18T22:17:37;33.60;;;13.60;;
6878;SDS011;3478;51.462;7.338;2022-12-18T22:22:39;30.70;;;14.90;;
6878;SDS011;3478;51.462;7.338;2022-12-18T22:27:42;35.73;;;18.10;;
6878;SDS011;3478;51.462;7.338;2022-12-18T22:33:06;33.37;;;17.37;;
6878;SDS011;3478;51.462;7.338;2022-12-18T22:38:08;32.47;;;15.20;;
6878;SDS011;3478;51.462;7.338;2022-12-18T22:43:10;28.63;;;16.10;;
6878;SDS011;3478;51.462;7.338;2022-12-18T22:48:14;25.20;;;14.50;;
6878;SDS011;3478;51.462;7.338;2022-12-18T22:53:16;27.97;;;16.23;;
6878;SDS011;3478;51.462;7.338;2022-12-18T22:58:18;26.07;;;14.97;;
6878;SDS011;3478;51.462;7.338;2022-12-18T23:03:21;29.43;;;15.70;;
6878;SDS011;3478;51.462;7.338;2022-12-18T23:08:23;29.30;;;15.67;;
6878;SDS011;3478;51.462;7.338;2022-12-18T23:13:25;26.83;;;16.67;;
6878;SDS011;3478;51.462;7.338;2022-12-18T23:18:29;31.07;;;15.93;;
6878;SDS011;3478;51.462;7.338;2022-12-18T23:23:32;30.03;;;14.80;;
6878;SDS011;3478;51.462;7.338;2022-12-18T23:28:35;27.73;;;14.67;;
6878;SDS011;3478;51.462;7.338;2022-12-18T23:33:39;32.43;;;17.13;;
6878;SDS011;3478;51.462;7.338;2022-12-18T23:38:42;32.43;;;14.37;;
6878;SDS011;3478;51.462;7.338;2022-12-18T23:43:47;32.17;;;16.20;;
6878;SDS011;3478;51.462;7.338;2022-12-18T23:48:51;32.67;;;16.63;;
6878;SDS011;3478;51.462;7.338;2022-12-18T23:53:54;30.67;;;16.60;;
6878;SDS011;3478;51.462;7.338;2022-12-18T23:58:57;34.83;;;17.00;;
